General Aviation Weather

Text Reports

Enter one or more of the following location identifiers separated by a space:

Zip Code, Four-Character ICAO or Three-Character IATA airport codes.

METAR - Aviation Routine Weather Report
BGJN - Ilulissat,
Updated at 2:50 AM GMT on May 27, 2015 (12:50 AM WGST):
METAR BGJN 270250Z AUTO 00000KT 9999NDV NCD M02/M04 Q1010
TAF - Terminal Area Forecast
BGJN - Ilulissat,
Updated at 2:50 AM GMT on May 27, 2015 (12:50 AM WGST):
TAF BGJN 270229Z NIL=
Decoded:
ID: BGJN   Jakobshavn Luft, GL
REPORT TIME: 25 23:29
INITIAL WX
   WEATHER: NIL
   COMMENTS: = 

PIREP - Pilot Weather Report
BGJN - Ilulissat,
Updated at 2:50 AM GMT on May 27, 2015 (12:50 AM WGST):
No PIREP is currently available for this location.
AIRMET - Airmens Meteorological Information
BGJN - Ilulissat,
Updated at 2:50 AM GMT on May 27, 2015 (12:50 AM WGST):
No AIRMET is currently available for this location.
SIGMET - Significant Meteorological Information
BGJN - Ilulissat,
Updated at 2:50 AM GMT on May 27, 2015 (12:50 AM WGST):
No SIGMET is currently available for this location.
NOTAM - Notice to Airmen
BGJN - Ilulissat,
Updated at 2:50 AM GMT on May 27, 2015 (12:50 AM WGST):
No NOTAM is currently available for this location.
Forecast Area
BGJN - Ilulissat,
Updated at 2:50 AM GMT on May 27, 2015 (12:50 AM WGST):
No NOTAM is currently available for this location.
Aviation Weather Maps